Airfield :
LOGIN :

Register | Disclaimer

   EN    FR    IT 

 










Legend :    VFR   Marginal VFR   IFR   Intensive IFR   Very Intensive IFR
Visi :
Ceiling :
>= 8 km
>= 3000ft
5 to 8 km
1000 to 3000 ft
1500m to 5 km
500 to 1000 ft
800 to 1500m
200 to 500 ft
< 800m
< 200 ft
Symbols :   Thunderstorms  Fog  Heavy snow  Heavy precipitations  Wind > 20 kt
SIGMETs :     Misc.  Thunderstorms  Icing  Turbulence  Mountain Waves  Volcanic Ashes







- Airport Elevation : 1000 ft
- IATA code : PEV


LHPP - Pécs Pogany

CURRENT METAR :
  • 181645Z 35005KT 9999 FEW013 OVC083 02/M01 Q1025

EXPIRED METARs :
  • 181615Z 01003KT 9999 FEW013 OVC083 02/M01 Q1025
  • 181545Z 01004KT 9999 SCT013 OVC083 02/M01 Q1025
  • 181515Z 02006KT 9999 BKN013 OVC083 02/M01 Q1024
  • 181445Z 02006KT 9999 BKN013 OVC083 02/M01 Q1024

TAF TAF LHPP
Valid from the 18 at 15:00 until the 19 at 00:00 UTC


181415Z 1815/1824 01008KT 9999 OVC010
BECMG 1815/1818 SCT015 BKN030 OVC050
BECMG 1818/1821 CAVOK
No reported NOTAMs for that airfield.



MET'MAP, your aeronautical weather chart ! - Copyright ORBIFLY December 2007 - Disclaimer

ORBIFLY MET'MAP TEAM :

Programming & Development : Alexandra Zaïnal
Concept & Development : Baudouin d'Aumeries
Co-Development & Prog : Marc-Olivier Méhu
Technical & hardware support : Manuel Goepfert

Contact : metmap@orbifly.com




SOURCES & CREDITS :

   NOAA